createdAt,value
2024-02-29T00:00:36.149Z,2.81
2024-02-29T00:03:30.098Z,2.83
2024-02-29T00:06:03.762Z,2.83
2024-02-29T00:08:37.490Z,2.86
2024-02-29T00:11:11.408Z,2.88
2024-02-29T00:13:45.022Z,2.89
2024-02-29T00:16:19.194Z,2.90
2024-02-29T00:18:53.062Z,2.92
2024-02-29T00:21:26.648Z,2.93
2024-02-29T00:24:00.233Z,2.94
2024-02-29T00:26:34.716Z,2.95
2024-02-29T00:29:09.203Z,2.96
2024-02-29T00:31:46.821Z,2.95
2024-02-29T00:34:20.725Z,2.94
2024-02-29T00:36:54.305Z,2.96
2024-02-29T00:39:28.186Z,2.96
2024-02-29T00:42:01.898Z,2.97
2024-02-29T00:44:35.937Z,2.97
2024-02-29T00:47:10.370Z,2.96
2024-02-29T00:49:44.108Z,2.94
2024-02-29T00:52:18.237Z,2.94
2024-02-29T00:54:52.170Z,2.94
2024-02-29T00:57:26.245Z,2.95
2024-02-29T00:59:59.903Z,2.97
2024-02-29T01:02:33.753Z,2.98
2024-02-29T01:05:08.745Z,3.00
2024-02-29T01:07:42.715Z,3.00
2024-02-29T01:10:17.569Z,2.97
2024-02-29T01:12:51.399Z,2.95
2024-02-29T01:15:25.483Z,2.90
2024-02-29T01:17:59.372Z,2.84
2024-02-29T01:20:33.243Z,2.80
2024-02-29T01:23:07.199Z,2.77
2024-02-29T01:25:41.481Z,2.74
2024-02-29T01:28:15.299Z,2.72
2024-02-29T01:30:48.852Z,2.69
2024-02-29T01:33:22.568Z,2.66
2024-02-29T01:35:56.571Z,2.60
2024-02-29T01:38:30.226Z,2.53
2024-02-29T01:41:04.110Z,2.45
2024-02-29T01:43:37.998Z,2.40
2024-02-29T01:46:17.176Z,2.36
2024-02-29T01:48:51.389Z,2.33
2024-02-29T01:51:25.165Z,2.31
2024-02-29T01:53:58.804Z,2.29
2024-02-29T01:56:32.522Z,2.27
2024-02-29T01:59:06.878Z,2.23
2024-02-29T02:01:40.748Z,2.18
2024-02-29T02:04:14.597Z,2.15
2024-02-29T02:06:48.584Z,2.08
2024-02-29T02:09:22.697Z,2.02
2024-02-29T02:11:57.228Z,1.99
2024-02-29T02:14:31.334Z,1.95
2024-02-29T02:17:05.009Z,1.91
2024-02-29T02:19:40.084Z,1.86
2024-02-29T02:22:14.178Z,1.83
2024-02-29T02:24:47.963Z,1.80
2024-02-29T02:27:22.442Z,1.76
2024-02-29T02:29:56.051Z,1.72
2024-02-29T02:32:30.356Z,1.68
2024-02-29T02:35:05.689Z,1.65
2024-02-29T02:37:39.919Z,1.63
2024-02-29T02:40:15.115Z,1.59
2024-02-29T02:42:49.252Z,1.58
2024-02-29T02:45:22.954Z,1.56
2024-02-29T02:47:56.940Z,1.54
2024-02-29T02:50:31.172Z,1.52
2024-02-29T02:53:09.002Z,1.51
2024-02-29T02:55:43.197Z,1.51
2024-02-29T02:58:17.520Z,1.49
2024-02-29T03:00:51.244Z,1.50
2024-02-29T03:03:25.101Z,1.51
2024-02-29T03:05:59.115Z,1.51
2024-02-29T03:08:32.997Z,1.50
2024-02-29T03:11:06.657Z,1.49
2024-02-29T03:13:41.377Z,1.47
2024-02-29T03:16:15.508Z,1.46
2024-02-29T03:18:49.878Z,1.45
2024-02-29T03:21:23.908Z,1.44
2024-02-29T03:23:58.052Z,1.45
2024-02-29T03:26:31.632Z,1.47
2024-02-29T03:29:05.926Z,1.47
2024-02-29T03:31:39.621Z,1.46
2024-02-29T03:34:13.475Z,1.47
2024-02-29T03:36:47.670Z,1.48
2024-02-29T03:39:21.676Z,1.50
2024-02-29T03:41:55.634Z,1.53
2024-02-29T03:44:29.435Z,1.57
2024-02-29T03:47:03.475Z,1.57
2024-02-29T03:49:37.226Z,1.58
2024-02-29T03:52:12.138Z,1.61
2024-02-29T03:54:46.692Z,1.63
2024-02-29T03:57:20.190Z,1.62
2024-02-29T03:59:54.158Z,1.65
2024-02-29T04:02:29.680Z,1.70
2024-02-29T04:05:03.280Z,1.75
2024-02-29T04:07:38.217Z,1.81
2024-02-29T04:10:13.809Z,1.88
2024-02-29T04:12:47.327Z,1.95
2024-02-29T04:15:21.847Z,2.04
2024-02-29T04:17:55.424Z,2.13
2024-02-29T04:20:29.434Z,2.22
2024-02-29T04:23:03.436Z,2.30
2024-02-29T04:25:37.342Z,2.41
2024-02-29T04:28:11.309Z,2.54
2024-02-29T04:30:46.144Z,2.66
2024-02-29T04:33:20.555Z,2.78
2024-02-29T04:35:54.283Z,2.91
2024-02-29T04:38:28.160Z,3.02
2024-02-29T04:41:02.678Z,3.13
2024-02-29T04:43:36.713Z,3.25
2024-02-29T04:46:11.254Z,3.37
2024-02-29T04:48:45.258Z,3.49
2024-02-29T04:51:19.170Z,3.62
2024-02-29T04:53:53.888Z,3.73
2024-02-29T04:56:28.221Z,3.83
2024-02-29T04:59:02.123Z,3.95
2024-02-29T05:01:35.953Z,4.05
2024-02-29T05:04:10.493Z,4.17
2024-02-29T05:06:44.350Z,4.31
2024-02-29T05:09:18.731Z,4.45
2024-02-29T05:11:52.588Z,4.58
2024-02-29T05:14:27.032Z,4.69
2024-02-29T05:17:01.423Z,4.81
2024-02-29T05:19:36.237Z,4.92
2024-02-29T05:22:10.668Z,5.05
2024-02-29T05:24:44.434Z,5.18
2024-02-29T05:27:18.185Z,5.28
2024-02-29T05:29:51.946Z,5.36
2024-02-29T05:32:26.266Z,5.45
2024-02-29T05:35:00.783Z,5.55
2024-02-29T05:37:34.592Z,5.69
2024-02-29T05:40:12.197Z,5.82
2024-02-29T05:42:45.794Z,5.95
2024-02-29T05:45:19.831Z,6.08
2024-02-29T05:47:54.548Z,6.20
2024-02-29T05:50:31.229Z,6.28
2024-02-29T05:53:07.535Z,6.35
2024-02-29T05:55:41.520Z,6.48
2024-02-29T05:58:15.654Z,6.65
2024-02-29T06:00:49.581Z,6.79
2024-02-29T06:03:23.762Z,6.99
2024-02-29T06:05:57.386Z,7.48
2024-02-29T06:08:31.572Z,9.44
2024-02-29T06:11:05.854Z,12.83
2024-02-29T06:13:41.121Z,16.36
2024-02-29T06:16:15.799Z,19.53
2024-02-29T06:18:50.011Z,22.28
2024-02-29T06:21:23.768Z,24.48
2024-02-29T06:23:57.380Z,26.47
2024-02-29T06:26:30.992Z,28.00
2024-02-29T06:29:04.805Z,29.23
2024-02-29T06:31:38.878Z,30.30
2024-02-29T06:34:12.676Z,31.30
2024-02-29T06:36:46.290Z,32.15
2024-02-29T06:39:20.223Z,32.55
2024-02-29T06:41:54.517Z,33.02
2024-02-29T06:44:28.094Z,33.58
2024-02-29T06:47:01.779Z,34.01
2024-02-29T06:49:35.747Z,33.76
2024-02-29T06:52:12.144Z,33.94
2024-02-29T06:54:46.989Z,34.53
2024-02-29T06:57:21.321Z,35.34
2024-02-29T06:59:55.737Z,35.96
2024-02-29T07:02:30.251Z,36.30
2024-02-29T07:05:04.360Z,36.46
2024-02-29T07:07:38.263Z,36.90
2024-02-29T07:10:14.264Z,37.34
2024-02-29T07:12:48.433Z,37.87
2024-02-29T07:15:22.732Z,37.78
2024-02-29T07:17:56.587Z,36.63
2024-02-29T07:20:30.865Z,36.00
2024-02-29T07:23:05.407Z,35.91
2024-02-29T07:25:39.193Z,35.80
2024-02-29T07:28:13.628Z,36.19
2024-02-29T07:30:47.640Z,36.45
2024-02-29T07:33:21.430Z,36.41
2024-02-29T07:35:56.181Z,35.83
2024-02-29T07:38:30.209Z,35.91
2024-02-29T07:41:04.690Z,36.43
2024-02-29T07:43:38.493Z,36.94
2024-02-29T07:46:12.202Z,36.97
2024-02-29T07:48:46.534Z,36.75
2024-02-29T07:51:23.232Z,36.94
2024-02-29T07:53:57.162Z,37.22
2024-02-29T07:56:30.869Z,37.06
2024-02-29T07:59:04.685Z,37.20
2024-02-29T08:01:38.458Z,37.04
2024-02-29T08:04:13.247Z,36.85
2024-02-29T08:06:47.539Z,35.79
2024-02-29T08:09:21.146Z,33.36
2024-02-29T08:11:56.049Z,30.58
2024-02-29T08:14:28.827Z,27.76
2024-02-29T08:17:02.861Z,25.43
2024-02-29T08:19:36.367Z,23.39
2024-02-29T08:22:10.401Z,21.66
2024-02-29T08:24:44.464Z,20.22
2024-02-29T08:27:18.439Z,18.86
2024-02-29T08:29:52.690Z,17.75
2024-02-29T08:32:26.642Z,16.76
2024-02-29T08:35:01.322Z,15.85
2024-02-29T08:37:35.151Z,14.99
2024-02-29T08:40:10.658Z,14.45
2024-02-29T08:42:44.636Z,14.09
2024-02-29T08:45:22.052Z,13.79
2024-02-29T08:47:57.138Z,13.52
2024-02-29T08:50:30.743Z,13.33
2024-02-29T08:53:04.606Z,12.81
2024-02-29T08:55:39.582Z,12.46
2024-02-29T08:58:13.673Z,12.29
2024-02-29T09:00:47.573Z,12.11
2024-02-29T09:03:21.398Z,11.96
2024-02-29T09:05:55.125Z,11.80
2024-02-29T09:08:28.794Z,11.70
2024-02-29T09:11:02.625Z,11.58
2024-02-29T09:13:36.840Z,11.35
2024-02-29T09:16:11.270Z,11.13
2024-02-29T09:18:45.202Z,10.95
2024-02-29T09:21:19.040Z,10.80
2024-02-29T09:23:52.745Z,10.66
2024-02-29T09:26:27.255Z,10.54
2024-02-29T09:29:01.245Z,10.44
2024-02-29T09:31:35.032Z,10.38
2024-02-29T09:34:09.129Z,10.42
2024-02-29T09:36:43.856Z,10.48
2024-02-29T09:39:17.578Z,10.46
2024-02-29T09:42:08.640Z,10.41
2024-02-29T09:44:45.511Z,10.28
2024-02-29T09:47:20.982Z,10.22
2024-02-29T09:49:59.581Z,10.20
2024-02-29T09:52:40.347Z,10.23
2024-02-29T09:55:18.695Z,10.21
2024-02-29T09:57:52.961Z,10.16
2024-02-29T10:00:27.406Z,9.99
2024-02-29T10:03:01.828Z,9.84
2024-02-29T10:05:36.162Z,9.80
2024-02-29T10:08:11.129Z,9.81
2024-02-29T10:10:45.155Z,9.91
2024-02-29T10:13:18.836Z,9.97
2024-02-29T10:15:54.473Z,9.97
2024-02-29T10:18:28.413Z,10.00
2024-02-29T10:21:02.248Z,9.97
2024-02-29T10:23:36.174Z,9.99
2024-02-29T10:26:10.705Z,10.01
2024-02-29T10:28:44.641Z,9.95
2024-02-29T10:31:22.389Z,9.99
2024-02-29T10:33:56.112Z,10.05
2024-02-29T10:36:30.226Z,10.04
2024-02-29T10:39:03.828Z,10.10
2024-02-29T10:41:38.113Z,10.17
2024-02-29T10:44:12.490Z,10.23
2024-02-29T10:46:46.646Z,10.32
2024-02-29T10:49:30.376Z,10.36
2024-02-29T10:52:10.786Z,10.26
2024-02-29T10:54:52.584Z,10.23
2024-02-29T10:57:28.427Z,10.29
2024-02-29T11:00:06.775Z,10.35
2024-02-29T11:02:42.085Z,10.36
2024-02-29T11:05:16.246Z,10.31
2024-02-29T11:07:50.088Z,10.24
2024-02-29T11:10:24.559Z,10.26
2024-02-29T11:13:07.553Z,10.31
2024-02-29T11:15:46.071Z,10.33
2024-02-29T11:18:26.584Z,10.29
2024-02-29T11:21:10.465Z,10.26
2024-02-29T11:23:44.604Z,10.19
2024-02-29T11:26:18.869Z,10.21
2024-02-29T11:28:53.420Z,10.21
2024-02-29T11:31:27.372Z,10.21
2024-02-29T11:34:01.780Z,10.22
2024-02-29T11:36:37.713Z,10.23
2024-02-29T11:39:12.695Z,10.22
2024-02-29T11:41:48.200Z,10.23
2024-02-29T11:44:21.824Z,10.26
2024-02-29T11:46:55.782Z,10.26
2024-02-29T11:49:29.806Z,10.22
2024-02-29T11:52:03.828Z,10.21
2024-02-29T11:54:38.322Z,10.26
2024-02-29T11:57:12.855Z,10.38
2024-02-29T11:59:46.952Z,10.49
2024-02-29T12:02:21.733Z,10.53
2024-02-29T12:04:56.177Z,10.56
2024-02-29T12:07:30.641Z,10.63
2024-02-29T12:10:05.753Z,10.64
2024-02-29T12:12:40.287Z,10.63
2024-02-29T12:15:14.745Z,10.61
2024-02-29T12:17:51.599Z,10.55
2024-02-29T12:20:27.482Z,10.49
2024-02-29T12:23:03.590Z,10.45
2024-02-29T12:25:38.077Z,10.46
2024-02-29T12:28:12.850Z,10.48
2024-02-29T12:30:48.096Z,10.47
2024-02-29T12:33:25.154Z,10.45
2024-02-29T12:36:00.810Z,10.49
2024-02-29T12:38:35.941Z,10.54
2024-02-29T12:41:10.808Z,10.51
2024-02-29T12:43:51.397Z,10.48
2024-02-29T12:46:25.379Z,10.46
2024-02-29T12:49:00.294Z,10.48
2024-02-29T12:51:34.512Z,10.50
2024-02-29T12:54:09.380Z,10.45
2024-02-29T12:56:43.612Z,10.39
2024-02-29T12:59:17.626Z,10.36
2024-02-29T13:01:51.523Z,10.33
2024-02-29T13:04:26.256Z,10.36
2024-02-29T13:07:00.821Z,10.39
2024-02-29T13:09:34.657Z,10.41
2024-02-29T13:12:09.327Z,10.37
2024-02-29T13:14:44.657Z,10.35
2024-02-29T13:17:18.514Z,10.34
2024-02-29T13:19:52.952Z,10.36
2024-02-29T13:22:26.965Z,10.33
2024-02-29T13:25:00.967Z,10.26
2024-02-29T13:27:36.278Z,10.25
2024-02-29T13:30:12.098Z,10.20
2024-02-29T13:32:46.494Z,10.16
2024-02-29T13:35:20.284Z,10.10
2024-02-29T13:37:57.086Z,10.06
2024-02-29T13:40:31.140Z,9.96
2024-02-29T13:43:04.883Z,9.93
2024-02-29T13:45:40.697Z,9.93
2024-02-29T13:48:14.931Z,9.91
2024-02-29T13:50:48.703Z,9.86
2024-02-29T13:53:22.563Z,9.84
2024-02-29T13:55:56.463Z,9.82
2024-02-29T13:58:30.107Z,9.80
2024-02-29T14:01:06.695Z,9.76
2024-02-29T14:03:42.530Z,9.70
2024-02-29T14:06:16.969Z,9.62
2024-02-29T14:08:50.899Z,9.54
2024-02-29T14:11:24.568Z,9.42
2024-02-29T14:13:58.343Z,9.29
2024-02-29T14:16:32.611Z,9.16
2024-02-29T14:19:06.674Z,9.11
2024-02-29T14:21:40.437Z,9.06
2024-02-29T14:24:14.316Z,9.02
2024-02-29T14:26:48.610Z,8.98
2024-02-29T14:29:22.720Z,8.90
2024-02-29T14:31:56.828Z,8.80
2024-02-29T14:34:30.778Z,8.66
2024-02-29T14:37:04.555Z,8.56
2024-02-29T14:39:38.330Z,8.49
2024-02-29T14:42:12.262Z,8.42
2024-02-29T14:44:46.076Z,8.35
2024-02-29T14:47:20.172Z,8.29
2024-02-29T14:49:53.815Z,8.24
2024-02-29T14:52:28.727Z,8.20
2024-02-29T14:55:02.663Z,8.14
2024-02-29T14:57:36.210Z,8.09
2024-02-29T15:00:16.244Z,8.03
2024-02-29T15:02:50.321Z,7.94
2024-02-29T15:05:24.381Z,7.87
2024-02-29T15:07:59.192Z,7.82
2024-02-29T15:10:34.139Z,7.77
2024-02-29T15:13:08.152Z,7.73
2024-02-29T15:15:42.182Z,7.67
2024-02-29T15:18:15.708Z,7.61
2024-02-29T15:20:49.371Z,7.55
2024-02-29T15:23:23.099Z,7.45
2024-02-29T15:25:56.991Z,7.38
2024-02-29T15:28:33.634Z,7.33
2024-02-29T15:31:08.611Z,7.28
2024-02-29T15:33:42.574Z,7.19
2024-02-29T15:36:17.110Z,7.15
2024-02-29T15:38:51.091Z,7.12
2024-02-29T15:41:26.066Z,7.10
2024-02-29T15:44:00.450Z,7.09
2024-02-29T15:46:34.360Z,7.06
2024-02-29T15:49:08.452Z,7.03
2024-02-29T15:51:42.782Z,7.00
2024-02-29T15:54:16.716Z,6.93
2024-02-29T15:56:51.774Z,6.88
2024-02-29T15:59:25.656Z,6.85
2024-02-29T16:01:59.499Z,6.85
2024-02-29T16:04:33.324Z,6.84
2024-02-29T16:07:07.935Z,6.84
2024-02-29T16:09:42.222Z,6.82
2024-02-29T16:12:17.604Z,6.79
2024-02-29T16:14:53.830Z,6.75
2024-02-29T16:17:28.899Z,6.71
2024-02-29T16:20:02.689Z,6.65
2024-02-29T16:22:42.046Z,6.62
2024-02-29T16:25:16.220Z,6.59
2024-02-29T16:27:51.739Z,6.57
2024-02-29T16:30:25.616Z,6.55
2024-02-29T16:32:59.292Z,6.53
2024-02-29T16:35:33.087Z,6.50
2024-02-29T16:38:08.043Z,6.45
2024-02-29T16:40:44.254Z,6.43
2024-02-29T16:43:22.606Z,6.39
2024-02-29T16:45:56.993Z,6.34
2024-02-29T16:48:31.353Z,6.30
2024-02-29T16:51:05.957Z,6.26
2024-02-29T16:53:40.246Z,6.19
2024-02-29T16:56:15.678Z,6.15
2024-02-29T16:58:49.648Z,6.05
2024-02-29T17:01:24.123Z,5.98
2024-02-29T17:04:00.550Z,5.91
2024-02-29T17:06:35.481Z,5.84
2024-02-29T17:09:09.374Z,5.76
2024-02-29T17:11:43.045Z,5.69
2024-02-29T17:14:17.386Z,5.65
2024-02-29T17:16:52.014Z,5.63
2024-02-29T17:19:26.046Z,5.59
2024-02-29T17:22:00.510Z,5.55
2024-02-29T17:24:34.404Z,5.53
2024-02-29T17:27:08.569Z,5.51
2024-02-29T17:29:43.935Z,5.48
2024-02-29T17:32:17.825Z,5.42
2024-02-29T17:34:51.513Z,5.35
2024-02-29T17:37:27.930Z,5.31
2024-02-29T17:40:03.569Z,5.29
2024-02-29T17:42:37.545Z,5.25
2024-02-29T17:45:13.142Z,5.22
2024-02-29T17:47:47.396Z,5.20
2024-02-29T17:50:21.991Z,5.17
2024-02-29T17:52:56.464Z,5.14
2024-02-29T17:55:30.367Z,5.13
2024-02-29T17:58:04.345Z,5.12
2024-02-29T18:00:38.898Z,5.10
2024-02-29T18:03:13.094Z,5.09
2024-02-29T18:05:47.561Z,5.05
2024-02-29T18:08:21.158Z,5.02
2024-02-29T18:10:54.877Z,4.99
2024-02-29T18:13:31.324Z,4.95
2024-02-29T18:16:05.825Z,4.94
2024-02-29T18:18:39.594Z,4.92
2024-02-29T18:21:13.010Z,4.90
2024-02-29T18:23:46.519Z,4.89
2024-02-29T18:26:22.665Z,4.87
2024-02-29T18:28:56.944Z,4.86
2024-02-29T18:31:30.835Z,4.86
2024-02-29T18:34:04.983Z,4.85
2024-02-29T18:36:42.970Z,4.85
2024-02-29T18:39:16.721Z,4.85
2024-02-29T18:41:50.897Z,4.85
2024-02-29T18:44:25.162Z,4.84
2024-02-29T18:47:01.273Z,4.83
2024-02-29T18:49:35.057Z,4.82
2024-02-29T18:52:10.379Z,4.80
2024-02-29T18:54:47.251Z,4.79
2024-02-29T18:57:20.966Z,4.78
2024-02-29T18:59:54.631Z,4.77
2024-02-29T19:02:28.696Z,4.77
2024-02-29T19:05:02.433Z,4.77
2024-02-29T19:07:36.340Z,4.77
2024-02-29T19:10:14.710Z,4.77
2024-02-29T19:12:49.130Z,4.76
2024-02-29T19:15:24.718Z,4.75
2024-02-29T19:18:02.390Z,4.74
2024-02-29T19:20:36.708Z,4.74
2024-02-29T19:23:10.955Z,4.75
2024-02-29T19:25:44.512Z,4.78
2024-02-29T19:28:18.348Z,4.80
2024-02-29T19:30:54.653Z,4.84
2024-02-29T19:33:28.226Z,4.87
2024-02-29T19:36:02.133Z,4.90
2024-02-29T19:38:36.661Z,4.95
2024-02-29T19:41:11.880Z,4.99
2024-02-29T19:43:45.543Z,5.03
2024-02-29T19:46:19.210Z,5.07
2024-02-29T19:48:54.819Z,5.10
2024-02-29T19:51:28.358Z,5.13
2024-02-29T19:54:01.837Z,5.16
2024-02-29T19:56:35.407Z,5.22
2024-02-29T19:59:08.886Z,5.27
2024-02-29T20:01:43.000Z,5.27
2024-02-29T20:04:18.174Z,5.30
2024-02-29T20:06:54.489Z,5.33
2024-02-29T20:09:28.017Z,5.36
2024-02-29T20:12:03.251Z,5.39
2024-02-29T20:14:36.800Z,5.42
2024-02-29T20:17:10.336Z,5.46
2024-02-29T20:19:44.006Z,5.48
2024-02-29T20:22:17.938Z,5.51
2024-02-29T20:24:52.098Z,5.53
2024-02-29T20:27:27.251Z,5.55
2024-02-29T20:30:01.353Z,5.55
2024-02-29T20:32:35.068Z,5.56
2024-02-29T20:35:09.650Z,5.59
2024-02-29T20:37:43.267Z,5.62
2024-02-29T20:40:18.282Z,5.62
2024-02-29T20:42:52.582Z,5.61
2024-02-29T20:45:26.421Z,5.59
2024-02-29T20:47:59.828Z,5.60
2024-02-29T20:50:34.859Z,5.61
2024-02-29T20:53:08.459Z,5.62
2024-02-29T20:55:42.071Z,5.62
2024-02-29T20:58:16.139Z,5.63
2024-02-29T21:00:50.001Z,5.67
2024-02-29T21:03:28.734Z,5.69
2024-02-29T21:06:04.604Z,5.69
2024-02-29T21:08:39.704Z,5.69
2024-02-29T21:11:13.342Z,5.68
2024-02-29T21:13:47.187Z,5.68
2024-02-29T21:16:20.808Z,5.68
2024-02-29T21:18:54.728Z,5.69
2024-02-29T21:21:30.662Z,5.70
2024-02-29T21:24:04.838Z,5.72
2024-02-29T21:26:40.514Z,5.73
2024-02-29T21:29:14.384Z,5.73
2024-02-29T21:31:49.247Z,5.73
2024-02-29T21:34:23.712Z,5.73
2024-02-29T21:36:58.393Z,5.74
2024-02-29T21:39:36.813Z,5.76
2024-02-29T21:42:17.498Z,5.79
2024-02-29T21:44:52.231Z,5.80
2024-02-29T21:47:25.983Z,5.80
2024-02-29T21:49:59.644Z,5.80
2024-02-29T21:52:33.875Z,5.81
2024-02-29T21:55:08.960Z,5.81
2024-02-29T21:57:43.101Z,5.82
2024-02-29T22:00:18.329Z,5.82
2024-02-29T22:02:51.955Z,5.80
2024-02-29T22:05:26.213Z,5.77
2024-02-29T22:08:00.356Z,5.76
2024-02-29T22:10:37.117Z,5.72
2024-02-29T22:13:11.794Z,5.69
2024-02-29T22:15:45.832Z,5.68
2024-02-29T22:18:20.708Z,5.67
2024-02-29T22:20:57.637Z,5.65
2024-02-29T22:23:31.918Z,5.63
2024-02-29T22:26:06.090Z,5.65
2024-02-29T22:28:41.164Z,5.68
2024-02-29T22:31:21.866Z,5.72
2024-02-29T22:33:55.757Z,5.75
2024-02-29T22:36:31.993Z,5.74
2024-02-29T22:39:07.008Z,5.72
2024-02-29T22:41:52.785Z,5.73
2024-02-29T22:44:31.952Z,5.75
2024-02-29T22:47:06.310Z,5.76
2024-02-29T22:49:40.684Z,5.77
2024-02-29T22:52:14.307Z,5.77
2024-02-29T22:54:48.416Z,5.79
2024-02-29T22:57:21.896Z,5.80
2024-02-29T22:59:56.228Z,5.77
2024-02-29T23:02:30.530Z,5.76
2024-02-29T23:05:06.720Z,5.76
2024-02-29T23:07:41.609Z,5.76
2024-02-29T23:10:16.910Z,5.74
2024-02-29T23:12:51.434Z,5.73
2024-02-29T23:15:25.929Z,5.72
2024-02-29T23:17:59.856Z,5.72
2024-02-29T23:20:35.112Z,5.74
2024-02-29T23:23:08.919Z,5.77
2024-02-29T23:25:42.713Z,5.80
2024-02-29T23:28:16.508Z,5.81
2024-02-29T23:30:50.418Z,5.83
2024-02-29T23:33:24.162Z,5.84
2024-02-29T23:35:57.987Z,5.86
2024-02-29T23:38:31.509Z,5.88
2024-02-29T23:41:05.392Z,5.91
2024-02-29T23:43:40.113Z,5.93
2024-02-29T23:46:14.011Z,5.95
2024-02-29T23:48:47.600Z,5.96
2024-02-29T23:51:22.263Z,5.97
2024-02-29T23:53:56.015Z,5.94
2024-02-29T23:56:30.346Z,5.92
2024-02-29T23:59:05.672Z,5.89
